createdAt,value
2019-04-20T00:01:05.371Z,11.80
2019-04-20T00:03:38.028Z,11.70
2019-04-20T00:06:04.419Z,11.60
2019-04-20T00:08:36.088Z,11.60
2019-04-20T00:11:10.678Z,11.60
2019-04-20T00:13:42.640Z,11.70
2019-04-20T00:16:04.135Z,11.70
2019-04-20T00:18:41.374Z,11.60
2019-04-20T00:21:20.762Z,11.50
2019-04-20T00:23:51.080Z,11.40
2019-04-20T00:26:51.104Z,11.20
2019-04-20T00:29:10.305Z,11.30
2019-04-20T00:31:42.023Z,11.20
2019-04-20T00:34:05.908Z,11.20
2019-04-20T00:36:27.137Z,11.20
2019-04-20T00:38:59.527Z,11.10
2019-04-20T00:41:25.855Z,11.10
2019-04-20T00:43:57.736Z,11.10
2019-04-20T00:46:32.898Z,11.20
2019-04-20T00:49:01.574Z,11.00
2019-04-20T00:51:39.484Z,11.20
2019-04-20T00:53:57.198Z,11.00
2019-04-20T00:56:26.401Z,11.20
2019-04-20T00:59:12.004Z,11.00
2019-04-20T01:01:47.663Z,10.70
2019-04-20T01:04:17.531Z,10.60
2019-04-20T01:06:46.633Z,10.60
2019-04-20T01:09:07.517Z,10.70
2019-04-20T01:11:40.426Z,10.70
2019-04-20T01:14:10.891Z,10.80
2019-04-20T01:16:45.224Z,10.50
2019-04-20T01:19:07.366Z,10.50
2019-04-20T01:21:36.853Z,10.60
2019-04-20T01:24:08.353Z,10.40
2019-04-20T01:26:43.731Z,10.50
2019-04-20T01:29:16.996Z,10.60
2019-04-20T01:31:52.971Z,10.40
2019-04-20T01:34:23.725Z,10.30
2019-04-20T01:36:51.752Z,10.00
2019-04-20T01:39:17.243Z,10.10
2019-04-20T01:41:37.235Z,10.20
2019-04-20T01:44:07.053Z,10.10
2019-04-20T01:46:39.107Z,10.40
2019-04-20T01:49:11.459Z,10.10
2019-04-20T01:51:46.986Z,10.10
2019-04-20T01:54:21.355Z,10.10
2019-04-20T01:56:53.373Z,10.00
2019-04-20T01:59:24.151Z,10.00
2019-04-20T02:01:55.685Z,10.10
2019-04-20T02:04:30.939Z,9.80
2019-04-20T02:07:00.465Z,9.70
2019-04-20T02:09:30.504Z,9.60
2019-04-20T02:12:04.850Z,10.00
2019-04-20T02:14:35.595Z,9.70
2019-04-20T02:17:08.421Z,9.90
2019-04-20T02:19:41.339Z,9.90
2019-04-20T02:22:09.861Z,9.90
2019-04-20T02:24:28.226Z,9.80
2019-04-20T02:26:57.830Z,9.50
2019-04-20T02:30:07.641Z,9.60
2019-04-20T02:32:43.018Z,9.50
2019-04-20T02:37:53.829Z,9.30
2019-04-20T02:40:12.374Z,9.10
2019-04-20T02:42:44.646Z,9.20
2019-04-20T02:47:41.428Z,9.00
2019-04-20T02:50:09.087Z,9.20
2019-04-20T02:52:55.954Z,9.20
2019-04-20T02:55:10.359Z,8.90
2019-04-20T03:02:23.687Z,9.00
2019-04-20T03:04:47.092Z,9.00
2019-04-20T03:07:25.463Z,9.00
2019-04-20T03:09:57.737Z,9.00
2019-04-20T03:12:34.493Z,8.80
2019-04-20T03:14:52.789Z,8.90
2019-04-20T03:17:33.895Z,9.00
2019-04-20T03:19:52.521Z,8.90
2019-04-20T03:22:48.024Z,8.80
2019-04-20T03:25:06.947Z,9.00
2019-04-20T03:27:29.473Z,8.90
2019-04-20T03:30:28.653Z,9.00
2019-04-20T03:35:29.880Z,8.70
2019-04-20T03:37:47.068Z,8.60
2019-04-20T03:40:05.469Z,8.80
2019-04-20T03:42:22.289Z,8.80
2019-04-20T03:44:57.907Z,8.80
2019-04-20T03:47:31.593Z,8.70
2019-04-20T03:50:10.578Z,8.70
2019-04-20T03:52:42.125Z,8.70
2019-04-20T03:55:16.442Z,8.50
2019-04-20T03:57:54.312Z,8.70
2019-04-20T04:00:36.505Z,8.60
2019-04-20T04:03:20.015Z,8.50
2019-04-20T04:05:42.500Z,8.40
2019-04-20T04:08:06.216Z,8.40
2019-04-20T04:10:44.278Z,8.40
2019-04-20T04:13:07.594Z,8.50
2019-04-20T04:15:42.570Z,8.30
2019-04-20T04:18:16.895Z,8.50
2019-04-20T04:20:46.473Z,8.60
2019-04-20T04:23:27.037Z,8.80
2019-04-20T04:25:58.148Z,8.80
2019-04-20T04:28:24.890Z,8.80
2019-04-20T04:30:59.963Z,8.90
2019-04-20T04:35:59.308Z,8.80
2019-04-20T04:38:35.939Z,8.80
2019-04-20T04:41:08.552Z,8.80
2019-04-20T04:43:25.664Z,8.80
2019-04-20T04:45:40.560Z,8.70
2019-04-20T04:48:14.699Z,8.80
2019-04-20T04:50:47.454Z,8.80
2019-04-20T04:53:23.855Z,8.70
2019-04-20T04:55:49.996Z,8.60
2019-04-20T04:58:10.671Z,8.60
2019-04-20T05:00:40.735Z,8.60
2019-04-20T05:03:26.999Z,8.30
2019-04-20T05:06:00.477Z,8.30
2019-04-20T05:08:18.951Z,8.50
2019-04-20T05:10:43.582Z,8.80
2019-04-20T05:13:13.571Z,9.00
2019-04-20T05:15:53.843Z,8.80
2019-04-20T05:18:42.095Z,9.00
2019-04-20T05:21:07.455Z,9.20
2019-04-20T05:23:29.536Z,9.20
2019-04-20T05:26:14.078Z,9.20
2019-04-20T05:28:33.525Z,9.20
2019-04-20T05:30:58.176Z,9.40
2019-04-20T05:33:34.412Z,9.40
2019-04-20T05:36:16.360Z,9.60
2019-04-20T05:38:47.224Z,9.70
2019-04-20T05:41:11.461Z,9.70
2019-04-20T05:43:54.410Z,9.90
2019-04-20T05:46:26.667Z,10.00
2019-04-20T05:48:56.231Z,10.10
2019-04-20T05:51:29.523Z,10.10
2019-04-20T05:53:59.208Z,10.40
2019-04-20T05:56:35.278Z,10.50
2019-04-20T05:58:59.622Z,10.70
2019-04-20T06:01:34.402Z,10.80
2019-04-20T06:03:59.379Z,11.20
2019-04-20T06:06:33.328Z,11.50
2019-04-20T06:09:08.778Z,11.80
2019-04-20T06:11:32.002Z,12.10
2019-04-20T06:13:53.737Z,12.10
2019-04-20T06:16:52.652Z,12.30
2019-04-20T06:19:23.795Z,12.70
2019-04-20T06:21:53.882Z,12.90
2019-04-20T06:24:16.755Z,13.10
2019-04-20T06:26:53.665Z,13.50
2019-04-20T06:29:16.041Z,13.40
2019-04-20T06:31:51.948Z,13.70
2019-04-20T06:34:35.534Z,13.40
2019-04-20T06:39:47.430Z,14.00
2019-04-20T06:49:33.249Z,14.70
2019-04-20T06:52:18.871Z,14.70
2019-04-20T06:54:38.012Z,14.80
2019-04-20T06:57:15.058Z,15.10
2019-04-20T06:59:43.333Z,15.30
2019-04-20T07:02:18.729Z,15.50
2019-04-20T07:04:49.615Z,15.50
2019-04-20T07:07:15.633Z,15.70
2019-04-20T07:09:58.169Z,16.00
2019-04-20T07:12:09.497Z,16.20
2019-04-20T07:14:35.880Z,16.40
2019-04-20T07:17:26.880Z,16.40
2019-04-20T07:20:02.784Z,16.60
2019-04-20T07:22:39.471Z,16.90
2019-04-20T07:25:19.033Z,17.50
2019-04-20T07:27:35.501Z,18.50
2019-04-20T07:30:07.622Z,18.90
2019-04-20T07:32:42.659Z,19.50
2019-04-20T07:35:08.401Z,19.90
2019-04-20T07:38:04.610Z,20.80
2019-04-20T07:40:13.539Z,21.30
2019-04-20T07:42:40.716Z,21.90
2019-04-20T07:45:11.934Z,22.90
2019-04-20T07:47:40.520Z,23.30
2019-04-20T07:50:05.121Z,24.20
2019-04-20T07:52:29.879Z,25.30
2019-04-20T07:55:26.371Z,27.60
2019-04-20T07:57:35.397Z,28.80
2019-04-20T08:00:06.322Z,28.00
2019-04-20T08:02:48.882Z,31.00
2019-04-20T08:05:08.210Z,31.70
2019-04-20T08:07:35.218Z,31.10
2019-04-20T08:10:00.421Z,31.10
2019-04-20T08:12:58.627Z,32.20
2019-04-20T08:15:32.024Z,32.20
2019-04-20T08:17:55.917Z,32.70
2019-04-20T08:20:23.417Z,31.90
2019-04-20T08:22:51.681Z,31.50
2019-04-20T08:25:14.184Z,32.50
2019-04-20T08:27:48.780Z,32.70
2019-04-20T08:30:51.703Z,32.50
2019-04-20T08:33:24.473Z,32.10
2019-04-20T08:36:01.259Z,33.20
2019-04-20T08:40:59.572Z,32.50
2019-04-20T08:45:58.751Z,33.30
2019-04-20T08:48:30.968Z,33.90
2019-04-20T08:50:57.593Z,34.10
2019-04-20T08:53:30.710Z,34.70
2019-04-20T08:55:54.057Z,35.30
2019-04-20T08:58:09.323Z,35.70
2019-04-20T09:00:45.664Z,34.20
2019-04-20T09:03:17.541Z,35.10
2019-04-20T09:05:50.005Z,33.50
2019-04-20T09:08:16.170Z,33.60
2019-04-20T09:10:56.515Z,34.70
2019-04-20T09:13:21.450Z,32.40
2019-04-20T09:15:40.444Z,32.30
2019-04-20T09:18:20.640Z,33.80
2019-04-20T09:20:50.681Z,32.80
2019-04-20T09:23:35.172Z,31.00
2019-04-20T09:26:04.882Z,30.60
2019-04-20T09:28:27.539Z,31.50
2019-04-20T09:31:09.163Z,31.60
2019-04-20T09:33:39.868Z,30.40
2019-04-20T09:36:27.965Z,30.70
2019-04-20T09:39:14.141Z,32.00
2019-04-20T09:42:00.080Z,32.30
2019-04-20T09:44:18.001Z,34.20
2019-04-20T09:46:51.358Z,33.00
2019-04-20T09:49:30.724Z,32.70
2019-04-20T09:52:03.870Z,33.20
2019-04-20T09:54:37.029Z,33.90
2019-04-20T09:57:09.456Z,34.10
2019-04-20T09:59:39.960Z,35.60
2019-04-20T10:01:55.655Z,34.70
2019-04-20T10:04:17.682Z,33.80
2019-04-20T10:06:47.555Z,33.90
2019-04-20T10:09:20.364Z,36.40
2019-04-20T10:11:47.618Z,37.60
2019-04-20T10:14:16.522Z,37.90
2019-04-20T10:16:45.002Z,36.70
2019-04-20T10:19:13.788Z,35.70
2019-04-20T10:21:43.568Z,35.40
2019-04-20T10:24:12.826Z,33.80
2019-04-20T10:26:42.693Z,36.10
2019-04-20T10:29:11.190Z,36.60
2019-04-20T10:31:46.970Z,36.40
2019-04-20T10:34:09.789Z,36.50
2019-04-20T10:36:43.689Z,35.30
2019-04-20T10:39:12.912Z,34.80
2019-04-20T10:41:49.161Z,35.90
2019-04-20T10:44:12.298Z,35.70
2019-04-20T10:46:40.882Z,35.40
2019-04-20T10:49:09.793Z,36.80
2019-04-20T10:51:39.955Z,36.50
2019-04-20T10:54:08.735Z,37.40
2019-04-20T10:56:37.426Z,38.80
2019-04-20T10:59:05.903Z,39.80
2019-04-20T11:01:34.305Z,39.60
2019-04-20T11:04:03.046Z,39.20
2019-04-20T11:06:32.359Z,39.60
2019-04-20T11:09:00.876Z,39.20
2019-04-20T11:11:31.714Z,39.30
2019-04-20T11:14:06.465Z,38.60
2019-04-20T11:16:30.621Z,35.70
2019-04-20T11:18:59.207Z,35.90
2019-04-20T11:21:28.242Z,36.80
2019-04-20T11:23:56.726Z,36.60
2019-04-20T11:26:26.450Z,35.40
2019-04-20T11:28:55.875Z,36.00
2019-04-20T11:31:28.770Z,36.90
2019-04-20T11:33:54.585Z,35.90
2019-04-20T11:36:23.219Z,35.40
2019-04-20T11:38:52.978Z,34.30
2019-04-20T11:41:26.185Z,32.70
2019-04-20T11:43:51.847Z,34.00
2019-04-20T11:46:20.657Z,33.50
2019-04-20T11:48:49.576Z,34.50
2019-04-20T11:51:18.984Z,33.80
2019-04-20T11:53:48.168Z,34.40
2019-04-20T11:56:22.694Z,34.00
2019-04-20T11:58:47.030Z,33.60
2019-04-20T12:01:20.826Z,34.00
2019-04-20T12:03:58.440Z,34.20
2019-04-20T12:06:18.936Z,32.90
2019-04-20T12:08:47.490Z,33.00
2019-04-20T12:11:26.532Z,32.30
2019-04-20T12:13:46.862Z,32.90
2019-04-20T12:16:15.382Z,32.80
2019-04-20T12:18:44.370Z,33.00
2019-04-20T12:21:12.939Z,32.50
2019-04-20T12:23:42.310Z,31.20
2019-04-20T12:26:10.902Z,31.00
2019-04-20T12:28:40.061Z,30.90
2019-04-20T12:31:12.867Z,29.50
2019-04-20T12:33:40.065Z,28.40
2019-04-20T12:36:10.240Z,28.50
2019-04-20T12:38:39.159Z,29.00
2019-04-20T12:41:09.568Z,29.20
2019-04-20T12:43:38.111Z,28.40
2019-04-20T12:46:07.690Z,28.60
2019-04-20T12:48:37.616Z,28.70
2019-04-20T12:51:06.228Z,28.60
2019-04-20T12:53:34.921Z,28.00
2019-04-20T12:56:04.360Z,26.90
2019-04-20T12:58:32.921Z,27.50
2019-04-20T13:01:02.599Z,27.90
2019-04-20T13:03:31.741Z,28.10
2019-04-20T13:06:01.700Z,28.50
2019-04-20T13:08:36.939Z,28.80
2019-04-20T13:11:20.412Z,28.90
2019-04-20T13:13:54.552Z,29.20
2019-04-20T13:16:26.070Z,29.20
2019-04-20T13:18:57.229Z,29.00
2019-04-20T13:21:27.004Z,28.80
2019-04-20T13:23:56.515Z,29.10
2019-04-20T13:26:25.189Z,29.20
2019-04-20T13:28:55.003Z,29.10
2019-04-20T13:31:24.078Z,29.20
2019-04-20T13:33:52.606Z,29.30
2019-04-20T13:36:22.033Z,28.70
2019-04-20T13:38:50.611Z,28.50
2019-04-20T13:41:19.845Z,28.40
2019-04-20T13:43:48.391Z,28.20
2019-04-20T13:46:16.854Z,28.20
2019-04-20T13:48:45.258Z,28.20
2019-04-20T13:51:14.497Z,27.90
2019-04-20T13:53:43.423Z,28.00
2019-04-20T13:56:13.750Z,27.50
2019-04-20T13:58:59.363Z,26.90
2019-04-20T14:01:32.695Z,26.20
2019-04-20T14:04:03.087Z,25.80
2019-04-20T14:06:32.860Z,25.60
2019-04-20T14:09:01.723Z,25.70
2019-04-20T14:11:31.303Z,25.20
2019-04-20T14:14:03.155Z,25.20
2019-04-20T14:16:31.389Z,25.10
2019-04-20T14:19:00.865Z,25.10
2019-04-20T14:21:30.200Z,24.50
2019-04-20T14:23:59.152Z,24.20
2019-04-20T14:26:27.641Z,24.40
2019-04-20T14:28:56.784Z,24.40
2019-04-20T14:31:25.883Z,24.40
2019-04-20T14:33:55.024Z,24.20
2019-04-20T14:36:24.336Z,23.90
2019-04-20T14:38:54.066Z,23.90
2019-04-20T14:41:22.674Z,24.00
2019-04-20T14:43:51.274Z,23.90
2019-04-20T14:46:20.906Z,23.50
2019-04-20T14:48:49.476Z,23.60
2019-04-20T14:51:19.396Z,23.60
2019-04-20T14:53:47.900Z,23.60
2019-04-20T14:56:17.650Z,23.70
2019-04-20T14:58:51.459Z,23.70
2019-04-20T15:01:24.706Z,23.60
2019-04-20T15:04:01.133Z,23.70
2019-04-20T15:06:23.570Z,23.50
2019-04-20T15:08:52.649Z,23.50
2019-04-20T15:11:21.145Z,23.40
2019-04-20T15:13:50.786Z,23.40
2019-04-20T15:16:20.327Z,23.40
2019-04-20T15:18:54.649Z,23.40
2019-04-20T15:21:35.611Z,23.40
2019-04-20T15:24:04.246Z,23.20
2019-04-20T15:26:34.151Z,23.20
2019-04-20T15:29:04.268Z,23.30
2019-04-20T15:31:34.211Z,23.10
2019-04-20T15:34:03.294Z,23.10
2019-04-20T15:36:34.075Z,23.20
2019-04-20T15:44:04.935Z,23.30
2019-04-20T15:46:34.821Z,23.10
2019-04-20T15:49:04.071Z,22.90
2019-04-20T15:51:34.155Z,22.80
2019-04-20T15:54:02.776Z,22.80
2019-04-20T15:56:31.290Z,22.80
2019-04-20T15:58:59.863Z,22.80
2019-04-20T16:01:30.307Z,22.80
2019-04-20T16:04:01.486Z,22.70
2019-04-20T16:06:32.647Z,22.80
2019-04-20T16:09:02.136Z,22.70
2019-04-20T16:11:31.035Z,22.70
2019-04-20T16:14:00.182Z,22.70
2019-04-20T16:16:30.017Z,22.60
2019-04-20T16:18:59.097Z,22.60
2019-04-20T16:21:30.232Z,22.50
2019-04-20T16:24:00.956Z,22.40
2019-04-20T16:26:33.919Z,22.30
2019-04-20T16:29:03.721Z,22.30
2019-04-20T16:31:32.770Z,22.20
2019-04-20T16:34:01.417Z,22.10
2019-04-20T16:36:30.494Z,22.20
2019-04-20T16:38:59.519Z,22.10
2019-04-20T16:41:28.417Z,22.10
2019-04-20T16:43:57.484Z,22.00
2019-04-20T16:46:25.993Z,21.80
2019-04-20T16:48:55.034Z,21.80
2019-04-20T16:51:23.489Z,21.90
2019-04-20T16:53:52.004Z,21.70
2019-04-20T16:56:22.277Z,21.60
2019-04-20T16:58:54.616Z,21.50
2019-04-20T17:01:21.484Z,21.50
2019-04-20T17:03:59.011Z,21.40
2019-04-20T17:06:20.651Z,21.30
2019-04-20T17:08:49.409Z,21.40
2019-04-20T17:11:18.175Z,21.30
2019-04-20T17:13:50.049Z,21.20
2019-04-20T17:16:17.565Z,21.20
2019-04-20T17:18:49.965Z,21.20
2019-04-20T17:21:23.169Z,21.00
2019-04-20T17:23:49.139Z,21.00
2019-04-20T17:26:20.849Z,20.90
2019-04-20T17:28:55.528Z,20.90
2019-04-20T17:31:29.347Z,20.80
2019-04-20T17:34:10.608Z,20.80
2019-04-20T17:36:32.727Z,20.70
2019-04-20T17:39:04.613Z,20.60
2019-04-20T17:41:48.779Z,20.50
2019-04-20T17:44:15.404Z,20.50
2019-04-20T17:46:44.117Z,20.50
2019-04-20T17:49:13.613Z,20.40
2019-04-20T17:51:53.274Z,20.20
2019-04-20T17:54:17.742Z,20.20
2019-04-20T17:56:46.693Z,20.20
2019-04-20T17:59:16.578Z,20.00
2019-04-20T18:02:17.519Z,20.00
2019-04-20T18:05:01.002Z,19.90
2019-04-20T18:07:32.466Z,19.70
2019-04-20T18:09:58.964Z,19.70
2019-04-20T18:12:10.449Z,19.60
2019-04-20T18:14:51.663Z,19.40
2019-04-20T18:17:23.415Z,19.40
2019-04-20T18:19:42.812Z,19.30
2019-04-20T18:22:13.843Z,19.20
2019-04-20T18:25:02.584Z,19.00
2019-04-20T18:27:31.950Z,19.00
2019-04-20T18:30:03.779Z,18.90
2019-04-20T18:32:29.497Z,18.80
2019-04-20T18:35:10.003Z,18.60
2019-04-20T18:37:39.730Z,18.70
2019-04-20T18:40:11.352Z,18.60
2019-04-20T18:42:43.646Z,18.50
2019-04-20T18:45:27.044Z,18.30
2019-04-20T18:47:56.335Z,18.20
2019-04-20T18:50:18.639Z,18.20
2019-04-20T18:52:42.085Z,18.00
2019-04-20T18:55:16.281Z,18.00
2019-04-20T18:57:41.581Z,17.90
2019-04-20T19:00:18.052Z,17.80
2019-04-20T19:02:46.866Z,17.90
2019-04-20T19:05:11.948Z,17.60
2019-04-20T19:07:51.539Z,17.70
2019-04-20T19:10:18.591Z,17.60
2019-04-20T19:12:50.346Z,17.50
2019-04-20T19:18:38.357Z,17.40
2019-04-20T19:20:55.005Z,17.40
2019-04-20T19:23:25.030Z,17.20
2019-04-20T19:26:01.284Z,17.00
2019-04-20T19:28:27.743Z,17.00
2019-04-20T19:31:08.001Z,17.00
2019-04-20T19:33:37.761Z,17.00
2019-04-20T19:36:09.285Z,17.00
2019-04-20T19:38:39.553Z,16.80
2019-04-20T19:41:05.892Z,16.60
2019-04-20T19:43:35.038Z,16.60
2019-04-20T19:46:35.135Z,16.50
2019-04-20T19:48:39.691Z,16.60
2019-04-20T19:51:22.360Z,16.60
2019-04-20T19:53:50.741Z,16.70
2019-04-20T19:56:09.949Z,16.70
2019-04-20T19:58:37.789Z,16.60
2019-04-20T20:00:59.528Z,16.50
2019-04-20T20:03:27.981Z,16.60
2019-04-20T20:05:58.269Z,16.60
2019-04-20T20:08:29.925Z,16.50
2019-04-20T20:11:00.907Z,16.40
2019-04-20T20:13:34.575Z,16.40
2019-04-20T20:16:02.471Z,16.40
2019-04-20T20:18:40.226Z,16.40
2019-04-20T20:21:11.037Z,16.40
2019-04-20T20:23:28.250Z,16.40
2019-04-20T20:25:57.066Z,16.20
2019-04-20T20:28:36.084Z,16.20
2019-04-20T20:31:08.058Z,16.10
2019-04-20T20:33:46.709Z,16.10
2019-04-20T20:36:05.667Z,16.10
2019-04-20T20:38:33.969Z,16.20
2019-04-20T20:41:10.568Z,16.00
2019-04-20T20:43:40.722Z,15.90
2019-04-20T20:46:10.864Z,15.90
2019-04-20T20:48:48.065Z,16.00
2019-04-20T20:51:17.759Z,15.90
2019-04-20T20:53:41.698Z,16.00
2019-04-20T20:56:07.888Z,15.80
2019-04-20T20:58:43.316Z,15.60
2019-04-20T21:01:07.865Z,15.60
2019-04-20T21:03:34.340Z,15.50
2019-04-20T21:05:59.936Z,15.40
2019-04-20T21:08:29.346Z,15.30
2019-04-20T21:10:58.020Z,15.00
2019-04-20T21:13:33.288Z,15.10
2019-04-20T21:16:02.593Z,14.90
2019-04-20T21:18:47.565Z,14.80
2019-04-20T21:21:11.144Z,14.90
2019-04-20T21:23:36.997Z,14.70
2019-04-20T21:26:12.786Z,14.70
2019-04-20T21:28:41.866Z,14.60
2019-04-20T21:31:15.973Z,14.50
2019-04-20T21:33:42.668Z,14.50
2019-04-20T21:36:13.421Z,14.20
2019-04-20T21:38:44.342Z,14.30
2019-04-20T21:41:16.473Z,14.40
2019-04-20T21:43:44.387Z,14.10
2019-04-20T21:46:13.776Z,14.00
2019-04-20T21:48:58.807Z,13.90
2019-04-20T21:51:24.412Z,13.80
2019-04-20T21:53:42.570Z,13.90
2019-04-20T21:56:12.212Z,13.80
2019-04-20T21:58:47.811Z,13.80
2019-04-20T22:01:22.180Z,13.70
2019-04-20T22:03:42.525Z,13.80
2019-04-20T22:06:11.605Z,13.60
2019-04-20T22:08:45.954Z,13.60
2019-04-20T22:11:11.562Z,13.80
2019-04-20T22:13:43.541Z,13.60
2019-04-20T22:16:12.534Z,13.60
2019-04-20T22:18:56.126Z,13.50
2019-04-20T22:21:21.778Z,13.50
2019-04-20T22:23:54.696Z,13.50
2019-04-20T22:26:23.726Z,13.60
2019-04-20T22:28:42.433Z,13.20
2019-04-20T22:31:11.946Z,13.20
2019-04-20T22:33:44.565Z,13.00
2019-04-20T22:36:13.080Z,13.10
2019-04-20T22:39:01.618Z,13.00
2019-04-20T22:41:30.192Z,12.90
2019-04-20T22:44:02.848Z,12.70
2019-04-20T22:46:33.534Z,12.80
2019-04-20T22:49:17.286Z,12.90
2019-04-20T22:51:42.849Z,12.80
2019-04-20T22:54:17.350Z,12.80
2019-04-20T22:56:43.867Z,12.50
2019-04-20T22:59:07.419Z,12.60
2019-04-20T23:01:38.277Z,12.50
2019-04-20T23:04:01.103Z,12.50
2019-04-20T23:06:33.375Z,12.40
2019-04-20T23:09:04.846Z,12.50
2019-04-20T23:11:33.244Z,12.60
2019-04-20T23:14:00.572Z,12.70
2019-04-20T23:16:39.246Z,12.50
2019-04-20T23:19:00.271Z,12.30
2019-04-20T23:21:29.954Z,12.40
2019-04-20T23:24:00.499Z,12.30
2019-04-20T23:26:33.547Z,12.30
2019-04-20T23:29:00.818Z,12.30
2019-04-20T23:31:30.344Z,12.30
2019-04-20T23:34:01.395Z,12.20
2019-04-20T23:36:37.183Z,11.80
2019-04-20T23:39:02.939Z,11.80
2019-04-20T23:41:29.827Z,11.90
2019-04-20T23:44:04.366Z,11.70
2019-04-20T23:46:37.409Z,11.70
2019-04-20T23:49:25.065Z,11.80
2019-04-20T23:52:09.488Z,11.80
2019-04-20T23:54:25.409Z,11.80
2019-04-20T23:56:49.995Z,11.60
2019-04-20T23:59:24.638Z,11.80
